aviador You're here:

YSNF Decoded Metar

NORFOLK ISLAND in AUSTRALIA
Report Time2018-07-18 10:00:00
UTC Time2018-07-18 10:37:47
Flight Rules vfr VFR
Wind190° at 12 kt
W.Decomp.*RWY 22: 8.5 kt HW 8.5 kt LCW
RWY 11: 5.1 kt HW 10.9 kt RCW
W.Rank190° ranks 14
Current wind is above 190° avg. (9.4)
Visibility9999 m
Phenomena:N/A
Clouds:Scattered 016 Hf
Scattered 021 Hf
Scattered 036 Hf
Expected CloudBase > 1,600 ft AGL from Temp-Dew spread
CeilingNone
Temp17°C (ISA +3)
Dew Point13°C (77% RH)
AAT13.6°C
QNH1016 hPa
Density Alt778 ft
Elevation358 ft
Report Wrong Elevation
Raw Report
METAR YSNF 181000Z AUTO 19012KT 9999 // SCT016 SCT021 SCT036 17/13 Q1016=

Extra information for YSNF:More info

Metar Taf Metar & Taf Last 4 Metars F.Rules Stats Wind Profile Meteogram Temp Stats Airport Information Weather charts Add Link Nearby VenuesMetar ALERT Operation Metar Decoded Social comments